Time;durP1;ratioP1;P1;durP2;ratioP2;P2;SDS_P1;SDS_P2;PMS_P1;PMS_P2;Temp;Humidity;BMP_temperature;BMP_pressure;BME280_temperature;BME280_humidity;BME280_pressure;Samples;Min_cycle;Max_cycle;Signal;HPM_P1;HPM_P2
2022/01/03 08:12:11;;;;;;;37.80;21.90;;;5.80;99.90;;;;;;5174340;27;20126;-75
2022/01/03 08:14:37;;;;;;;47.28;28.67;;;5.80;99.90;;;;;;5153575;27;20492;-75
2022/01/03 08:17:03;;;;;;;63.80;33.17;;;5.90;99.90;;;;;;5153560;27;20065;-75
2022/01/03 08:19:29;;;;;;;49.70;28.00;;;6.10;99.90;;;;;;5153059;27;20027;-75
2022/01/03 08:21:55;;;;;;;64.07;40.33;;;6.10;99.90;;;;;;5153170;27;20123;-75
2022/01/03 08:24:20;;;;;;;76.50;42.10;;;6.10;99.90;;;;;;5153480;27;20035;-75
2022/01/03 08:26:48;;;;;;;144.13;94.68;;;6.10;99.90;;;;;;5153089;27;20122;-75
2022/01/03 08:29:14;;;;;;;66.80;37.22;;;6.20;99.90;;;;;;5153110;27;20023;-75
2022/01/03 08:31:40;;;;;;;77.13;43.55;;;6.30;99.90;;;;;;5153463;27;20068;-75
2022/01/03 08:34:06;;;;;;;63.63;38.63;;;6.30;99.90;;;;;;5153009;27;20473;-75
2022/01/03 08:36:32;;;;;;;58.95;35.17;;;6.30;99.90;;;;;;5153094;27;20042;-75
2022/01/03 08:38:58;;;;;;;58.70;37.33;;;6.40;99.90;;;;;;5153191;27;20484;-75
2022/01/03 08:41:24;;;;;;;79.43;52.10;;;6.50;99.90;;;;;;5152869;27;20049;-75
2022/01/03 08:43:51;;;;;;;91.22;60.50;;;6.50;99.90;;;;;;5153004;27;20023;-75
2022/01/03 08:46:17;;;;;;;84.53;55.50;;;6.70;99.90;;;;;;5153236;27;20031;-75
2022/01/03 08:48:43;;;;;;;110.50;81.72;;;6.70;99.90;;;;;;5152784;27;20122;-75
2022/01/03 08:51:09;;;;;;;79.60;59.95;;;6.90;99.90;;;;;;5152583;27;20549;-75
2022/01/03 08:53:35;;;;;;;70.72;52.42;;;7.00;99.90;;;;;;5153118;27;20026;-75
2022/01/03 08:56:02;;;;;;;74.63;50.83;;;7.10;99.90;;;;;;5153041;27;20130;-75
2022/01/03 08:58:28;;;;;;;69.90;47.30;;;7.10;99.90;;;;;;5152797;27;20099;-75
2022/01/03 09:00:54;;;;;;;56.22;40.10;;;7.20;99.90;;;;;;5152482;27;20115;-75
2022/01/03 09:03:21;;;;;;;29.60;18.13;;;7.30;99.90;;;;;;5152747;27;20035;-75
2022/01/03 09:05:47;;;;;;;45.47;30.08;;;7.50;99.90;;;;;;5152823;27;20127;-75
2022/01/03 09:08:13;;;;;;;37.17;19.70;;;7.60;99.90;;;;;;5152211;27;20508;-75
2022/01/03 09:10:39;;;;;;;85.13;68.90;;;7.60;99.90;;;;;;5152346;27;20038;-75
2022/01/03 09:13:05;;;;;;;104.38;88.63;;;7.70;99.90;;;;;;5152802;27;20031;-74
2022/01/03 09:15:31;;;;;;;34.15;23.10;;;7.80;99.90;;;;;;5152478;27;20099;-75
2022/01/03 09:17:57;;;;;;;91.13;55.92;;;7.90;99.90;;;;;;5152826;27;20042;-75
2022/01/03 09:20:23;;;;;;;40.00;24.02;;;7.90;99.90;;;;;;5152729;27;20091;-75
2022/01/03 09:22:53;;;;;;;38.25;24.98;;;8.10;99.90;;;;;;5142567;27;20107;-75
2022/01/03 09:30:35;;;;;;;32.25;22.33;;;8.40;99.90;;;;;;5138415;27;20471;-75
2022/01/03 09:33:01;;;;;;;52.60;35.50;;;8.60;99.90;;;;;;5138147;27;20062;-75
2022/01/03 09:35:27;;;;;;;52.30;34.60;;;8.80;98.00;;;;;;5138589;27;20054;-75
2022/01/03 09:37:53;;;;;;;28.90;14.65;;;8.90;93.80;;;;;;5138574;27;20031;-76
2022/01/03 09:40:19;;;;;;;25.20;10.88;;;9.10;97.00;;;;;;5138660;27;20455;-75
2022/01/03 09:42:49;;;;;;;45.85;21.70;;;9.10;82.70;;;;;;5138154;27;20041;-75
2022/01/03 09:45:15;;;;;;;40.70;20.97;;;9.30;76.90;;;;;;5138336;27;20477;-76
2022/01/03 09:47:43;;;;;;;22.25;11.75;;;9.50;65.00;;;;;;5137879;27;20519;-75
2022/01/03 09:50:11;;;;;;;14.50;5.05;;;9.60;55.70;;;;;;5138182;27;20538;-75
2022/01/03 09:52:39;;;;;;;16.05;7.78;;;9.70;50.20;;;;;;5138281;27;20042;-75
2022/01/03 09:55:06;;;;;;;16.02;6.78;;;9.70;55.30;;;;;;5137903;27;20055;-76
2022/01/03 09:57:32;;;;;;;16.23;4.15;;;9.80;48.20;;;;;;5138187;27;20039;-75
2022/01/03 09:59:59;;;;;;;13.82;4.05;;;9.90;49.10;;;;;;5138180;27;20466;-75
2022/01/03 10:02:26;;;;;;;10.35;4.85;;;10.00;30.00;;;;;;5138131;27;20114;-76
2022/01/03 10:04:52;;;;;;;13.15;5.57;;;10.00;30.80;;;;;;5137589;27;20346;-76
2022/01/03 10:07:19;;;;;;;13.95;6.10;;;10.10;24.60;;;;;;5137700;27;20173;-76
2022/01/03 10:09:45;;;;;;;16.75;7.50;;;10.10;20.60;;;;;;5137345;27;20034;-75
2022/01/03 10:12:16;;;;;;;16.98;6.93;;;10.20;18.50;;;;;;5137600;27;20043;-75
2022/01/03 10:14:43;;;;;;;11.73;5.68;;;10.20;16.30;;;;;;5137848;27;20034;-76
2022/01/03 10:17:10;;;;;;;11.88;5.15;;;10.40;16.00;;;;;;5137511;27;20031;-75
2022/01/03 10:20:00;;;;;;;15.70;5.05;;;10.50;7.60;;;;;;5137431;27;20035;-76
2022/01/03 10:22:28;;;;;;;6.82;3.90;;;10.60;3.60;;;;;;5137459;27;20035;-76
2022/01/03 10:24:56;;;;;;;8.45;2.92;;;10.70;1.00;;;;;;5137055;27;20023;-75
2022/01/03 10:27:24;;;;;;;10.70;2.10;;;10.70;1.00;;;;;;5136993;27;20037;-75
2022/01/03 10:29:55;;;;;;;6.90;2.00;;;10.80;1.00;;;;;;5137839;27;20035;-76
2022/01/03 10:32:30;;;;;;;12.23;1.67;;;10.80;1.00;;;;;;5137183;27;20091;-75
2022/01/03 10:35:14;;;;;;;12.35;2.47;;;11.00;1.00;;;;;;5135713;27;20063;-76
2022/01/03 10:37:41;;;;;;;8.90;2.58;;;11.00;1.00;;;;;;5136867;27;20114;-75
2022/01/03 10:40:30;;;;;;;7.03;2.22;;;11.00;1.00;;;;;;5137165;27;20063;-74
2022/01/03 10:43:13;;;;;;;11.45;1.90;;;11.00;1.00;;;;;;5137203;27;20035;-75
2022/01/03 10:45:41;;;;;;;4.43;1.50;;;11.00;1.00;;;;;;5136605;27;20027;-75
2022/01/03 10:48:29;;;;;;;9.88;1.90;;;11.00;1.00;;;;;;5136415;27;20121;-75
2022/01/03 10:50:57;;;;;;;7.32;1.73;;;11.00;1.00;;;;;;5136907;27;20497;-75
2022/01/03 10:53:43;;;;;;;8.30;2.00;;;11.00;1.00;;;;;;5136658;27;20114;-75
2022/01/03 10:56:38;;;;;;;7.47;1.65;;;11.00;1.00;;;;;;5136665;27;20504;-75
2022/01/03 10:59:21;;;;;;;6.70;2.13;;;10.90;1.00;;;;;;5137487;27;20027;-75
2022/01/03 11:02:01;;;;;;;6.88;2.00;;;10.90;1.00;;;;;;5136284;27;20478;-75
2022/01/03 11:04:39;;;;;;;8.88;2.40;;;10.90;1.00;;;;;;5136057;27;20030;-75
2022/01/03 11:13:05;;;;;;;6.63;2.00;;;10.70;1.00;;;;;;5136543;27;20037;-75
2022/01/03 11:15:31;;;;;;;9.98;3.67;;;10.80;1.00;;;;;;5136946;27;20035;-75
2022/01/03 11:18:22;;;;;;;104.53;67.93;;;10.90;1.00;;;;;;5136733;27;20091;-75
2022/01/03 11:21:01;;;;;;;28.92;18.88;;;10.90;1.00;;;;;;5136885;27;20035;-75
2022/01/03 11:23:27;;;;;;;13.13;8.07;;;11.00;1.00;;;;;;5136687;27;20045;-75
2022/01/03 11:25:54;;;;;;;28.70;19.40;;;11.10;1.00;;;;;;5136715;27;20038;-75
2022/01/03 11:28:25;;;;;;;16.73;13.50;;;11.10;1.00;;;;;;5136163;27;20027;-75
2022/01/03 11:30:53;;;;;;;12.98;9.10;;;11.20;1.00;;;;;;5136501;27;20462;-75
2022/01/03 11:33:20;;;;;;;12.88;8.77;;;11.30;1.00;;;;;;5135900;27;20058;-75
2022/01/03 11:35:50;;;;;;;11.38;7.15;;;11.20;1.00;;;;;;5136258;27;20031;-75
2022/01/03 11:38:21;;;;;;;6.97;2.53;;;11.30;1.00;;;;;;5136472;27;20035;-75
2022/01/03 11:40:48;;;;;;;8.43;2.30;;;11.20;1.00;;;;;;5136134;27;20068;-75
2022/01/03 11:43:14;;;;;;;10.70;2.92;;;11.20;1.00;;;;;;5136240;27;20056;-75
2022/01/03 11:45:40;;;;;;;9.05;1.95;;;11.40;1.00;;;;;;5135628;27;20039;-75
2022/01/03 11:48:08;;;;;;;5.57;1.70;;;11.40;1.00;;;;;;5135959;27;20042;-75
2022/01/03 11:50:36;;;;;;;5.90;1.40;;;11.60;1.00;;;;;;5136059;27;20060;-75
2022/01/03 11:53:06;;;;;;;7.50;1.70;;;11.60;1.00;;;;;;5136030;27;20046;-75
2022/01/03 11:55:34;;;;;;;9.65;2.38;;;11.80;1.00;;;;;;5136000;27;20039;-75
2022/01/03 12:06:05;;;;;;;5.47;2.03;;;11.80;1.00;;;;;;5135586;27;20030;-75
2022/01/03 12:08:33;;;;;;;7.38;1.73;;;12.00;1.00;;;;;;5135883;27;20027;-75
2022/01/03 12:11:16;;;;;;;8.23;2.03;;;11.90;1.00;;;;;;5135769;27;20043;-75
2022/01/03 12:13:53;;;;;;;7.03;2.70;;;12.00;1.00;;;;;;5136466;28;20039;-75
2022/01/03 12:16:40;;;;;;;6.93;2.40;;;12.10;1.00;;;;;;5135176;28;20377;-75
2022/01/03 12:19:10;;;;;;;10.45;3.15;;;12.10;1.00;;;;;;5135718;28;20031;-75
2022/01/03 12:21:48;;;;;;;7.53;2.05;;;12.00;1.00;;;;;;5135652;28;20107;-75
2022/01/03 12:24:29;;;;;;;4.20;1.98;;;12.10;1.00;;;;;;5135390;28;20027;-75
2022/01/03 12:27:10;;;;;;;6.75;1.73;;;12.10;1.00;;;;;;5135425;27;20122;-75
2022/01/03 12:29:57;;;;;;;5.63;1.38;;;12.10;1.00;;;;;;5135964;28;20027;-75
2022/01/03 12:32:30;;;;;;;7.13;2.08;;;12.20;1.00;;;;;;5135239;28;20064;-75
2022/01/03 12:35:17;;;;;;;6.20;1.65;;;12.10;1.00;;;;;;5135078;28;20118;-74
2022/01/03 12:38:08;;;;;;;6.13;1.90;;;12.30;1.00;;;;;;5135267;28;20110;-75
2022/01/03 12:40:54;;;;;;;3.70;1.40;;;12.20;1.00;;;;;;5135447;27;20104;-75
2022/01/03 12:43:34;;;;;;;5.70;1.30;;;12.10;1.00;;;;;;5135280;28;20126;-75
2022/01/03 12:46:00;;;;;;;3.72;1.67;;;12.20;1.00;;;;;;5135540;28;20031;-75
2022/01/03 12:48:26;;;;;;;6.93;2.15;;;12.20;1.00;;;;;;5116919;28;20031;-75
2022/01/03 12:50:51;;;;;;;9.73;1.70;;;12.20;1.00;;;;;;5135673;28;20075;-75
2022/01/03 12:53:23;;;;;;;4.10;1.38;;;12.30;1.00;;;;;;5135421;28;20083;-75
2022/01/03 12:55:53;;;;;;;7.43;1.42;;;12.50;1.00;;;;;;5135438;28;20026;-75
2022/01/03 12:58:19;;;;;;;7.20;1.48;;;12.60;1.00;;;;;;5138214;27;20027;-75
2022/01/03 13:00:48;;;;;;;5.32;1.60;;;12.50;1.00;;;;;;5139291;27;20492;-75
2022/01/03 13:03:27;;;;;;;5.95;1.20;;;12.50;1.00;;;;;;5139076;27;20038;-75
2022/01/03 13:06:09;;;;;;;3.90;1.35;;;12.30;1.00;;;;;;5139276;27;20027;-75
2022/01/03 13:08:56;;;;;;;5.07;1.38;;;12.40;1.00;;;;;;5139732;27;20063;-75
2022/01/03 13:11:36;;;;;;;6.90;1.73;;;12.60;1.00;;;;;;5120721;27;20042;-75
2022/01/03 13:14:21;;;;;;;2.13;1.35;;;12.80;1.00;;;;;;5138794;27;20031;-75
2022/01/03 13:16:58;;;;;;;7.35;1.70;;;12.90;1.00;;;;;;5138654;27;20027;-75
2022/01/03 13:19:33;;;;;;;6.45;1.45;;;13.00;1.00;;;;;;5137904;27;20426;-75
2022/01/03 13:22:02;;;;;;;6.68;1.40;;;13.10;1.00;;;;;;5138204;27;20391;-75
2022/01/03 13:24:44;;;;;;;16.88;9.90;;;13.20;1.00;;;;;;5138168;27;20031;-75
2022/01/03 13:27:11;;;;;;;8.27;3.15;;;13.00;1.00;;;;;;5138210;27;20042;-75
2022/01/03 13:29:42;;;;;;;5.68;2.00;;;12.80;1.00;;;;;;5138541;27;20023;-75
2022/01/03 13:32:09;;;;;;;8.05;1.92;;;13.10;1.00;;;;;;5138417;27;20035;-75
2022/01/03 13:34:36;;;;;;;7.47;1.67;;;13.30;1.00;;;;;;5137879;27;20468;-75
2022/01/03 13:37:08;;;;;;;6.30;1.55;;;13.40;1.00;;;;;;5138028;27;20039;-75
2022/01/03 13:39:37;;;;;;;8.57;1.98;;;13.30;1.00;;;;;;5137991;27;20034;-75
2022/01/03 13:42:18;;;;;;;4.05;1.67;;;13.30;1.00;;;;;;5137836;27;20031;-75
2022/01/03 13:50:15;;;;;;;4.57;1.75;;;13.10;1.00;;;;;;5137488;27;20123;-75
2022/01/03 13:52:44;;;;;;;3.88;1.27;;;13.00;1.00;;;;;;5137723;27;20064;-75
2022/01/03 13:55:31;;;;;;;5.68;1.52;;;13.00;1.00;;;;;;5138238;27;20035;-75
2022/01/03 13:58:06;;;;;;;3.35;1.50;;;12.90;1.00;;;;;;5137562;27;20056;-75
2022/01/03 14:00:44;;;;;;;5.13;1.73;;;12.80;1.00;;;;;;5137603;27;20034;-75
2022/01/03 14:03:15;;;;;;;5.88;1.70;;;12.80;1.00;;;;;;5138177;27;20039;-75
2022/01/03 14:05:41;;;;;;;6.57;1.80;;;12.70;1.00;;;;;;5137195;27;20385;-75
2022/01/03 14:08:07;;;;;;;6.50;2.03;;;12.70;1.00;;;;;;5137282;27;20027;-75
2022/01/03 14:10:38;;;;;;;8.45;2.40;;;12.60;1.00;;;;;;5137955;27;20572;-75
2022/01/03 14:13:05;;;;;;;;;;;12.60;1.00;;;;;;5138451;27;20538;-75
2022/01/03 14:15:31;;;;;;;7.95;2.50;;;12.50;1.00;;;;;;5137807;27;19903;-75
2022/01/03 14:17:57;;;;;;;8.45;2.58;;;12.50;1.00;;;;;;5137393;27;20115;-75
2022/01/03 14:20:23;;;;;;;4.57;1.95;;;12.50;1.00;;;;;;5138145;27;20027;-75
2022/01/03 14:22:49;;;;;;;5.88;2.53;;;12.40;1.00;;;;;;5137472;27;20070;-75
2022/01/03 14:25:17;;;;;;;8.05;2.70;;;12.30;1.00;;;;;;5137918;27;20050;-75
2022/01/03 14:27:48;;;;;;;6.00;2.40;;;12.30;1.00;;;;;;5137539;27;20027;-75
2022/01/03 14:30:16;;;;;;;;;;;12.20;1.00;;;;;;5137339;27;20023;-75
2022/01/03 14:32:43;;;;;;;8.98;2.40;;;12.20;1.00;;;;;;5137113;27;20339;-75
2022/01/03 14:35:09;;;;;;;7.40;2.38;;;12.20;1.00;;;;;;5137246;27;20034;-75
2022/01/03 14:37:36;;;;;;;10.43;3.08;;;12.20;1.00;;;;;;5137457;27;20031;-76
2022/01/03 14:40:06;;;;;;;7.45;2.85;;;12.10;1.00;;;;;;5137940;27;20039;-75
2022/01/03 14:42:36;;;;;;;6.80;2.80;;;12.20;1.00;;;;;;5137049;27;20043;-75
2022/01/03 14:45:16;;;;;;;11.82;3.55;;;12.20;1.00;;;;;;5137394;27;20038;-75
2022/01/03 14:47:43;;;;;;;5.63;2.20;;;12.20;1.00;;;;;;5136416;27;20517;-75
2022/01/03 14:50:09;;;;;;;10.73;2.63;;;12.00;1.00;;;;;;5119044;27;20031;-75
2022/01/03 14:52:45;;;;;;;8.65;3.88;;;11.80;1.00;;;;;;5118659;27;20453;-75
2022/01/03 14:55:13;;;;;;;17.38;8.95;;;11.70;1.00;;;;;;5137120;27;20058;-75
2022/01/03 14:57:58;;;;;;;11.07;5.47;;;11.70;1.00;;;;;;5137084;27;20061;-75
2022/01/03 15:00:23;;;;;;;15.68;7.00;;;11.70;1.00;;;;;;5136699;27;20046;-75
2022/01/03 15:02:49;;;;;;;4.30;2.28;;;11.70;1.00;;;;;;5136464;27;20031;-75
2022/01/03 15:05:15;;;;;;;9.35;2.97;;;11.60;1.00;;;;;;5136620;27;20027;-75
2022/01/03 15:07:43;;;;;;;8.98;2.90;;;11.50;1.00;;;;;;5136520;27;20470;-75
2022/01/03 15:10:13;;;;;;;7.25;3.00;;;11.60;1.00;;;;;;5136614;27;20038;-75
2022/01/03 15:12:39;;;;;;;7.20;2.92;;;11.50;1.00;;;;;;5136439;27;20031;-75
2022/01/03 15:15:08;;;;;;;5.47;3.05;;;11.70;1.00;;;;;;5136710;27;20035;-75
2022/01/03 15:17:35;;;;;;;6.00;2.53;;;11.70;1.00;;;;;;5136422;27;20023;-75
2022/01/03 15:20:03;;;;;;;6.95;2.40;;;11.90;1.00;;;;;;5136449;27;20050;-75
2022/01/03 15:22:28;;;;;;;6.28;2.50;;;11.90;1.00;;;;;;5136549;27;20031;-75
2022/01/03 15:24:54;;;;;;;8.80;2.17;;;12.10;1.00;;;;;;5136479;27;20039;-75
2022/01/03 15:27:20;;;;;;;4.80;2.00;;;12.10;1.00;;;;;;5136465;27;20027;-75
2022/01/03 15:29:48;;;;;;;5.70;2.50;;;12.20;1.00;;;;;;5136222;27;20566;-75
2022/01/03 15:32:15;;;;;;;5.65;2.10;;;12.10;1.00;;;;;;5136224;27;20038;-75
2022/01/03 15:34:42;;;;;;;4.40;1.90;;;12.10;1.00;;;;;;5136335;27;20060;-75
2022/01/03 15:37:08;;;;;;;7.45;2.28;;;11.90;1.00;;;;;;5136095;27;20067;-75
2022/01/03 15:39:34;;;;;;;4.50;2.40;;;11.70;1.00;;;;;;5136861;27;20051;-75
2022/01/03 15:42:00;;;;;;;4.72;2.00;;;11.40;1.00;;;;;;5136211;27;20035;-75
2022/01/03 15:44:28;;;;;;;8.95;2.33;;;11.10;1.00;;;;;;5136159;27;20114;-75
2022/01/03 15:46:55;;;;;;;8.82;2.50;;;11.00;1.00;;;;;;5136300;27;20027;-75
2022/01/03 15:49:20;;;;;;;8.25;2.53;;;10.80;1.00;;;;;;5136624;27;20039;-75
2022/01/03 15:51:47;;;;;;;7.18;3.47;;;10.70;1.00;;;;;;5135759;27;20039;-75
2022/01/03 15:54:13;;;;;;;7.65;3.40;;;10.60;3.40;;;;;;5135819;27;20041;-75
2022/01/03 15:56:39;;;;;;;16.65;8.98;;;10.40;8.00;;;;;;5135720;27;20110;-75
2022/01/03 15:59:05;;;;;;;11.05;5.25;;;10.30;16.30;;;;;;5135761;27;20039;-75
2022/01/03 16:01:31;;;;;;;15.93;8.63;;;10.20;26.00;;;;;;5136180;27;20031;-75
2022/01/03 16:04:01;;;;;;;19.38;12.25;;;10.10;28.90;;;;;;5135430;27;20537;-75
2022/01/03 16:06:28;;;;;;;37.67;18.00;;;10.00;38.30;;;;;;5136080;27;20042;-75
2022/01/03 16:08:55;;;;;;;30.15;18.17;;;9.90;56.40;;;;;;5136031;27;20031;-75
2022/01/03 16:11:22;;;;;;;25.55;16.42;;;9.80;63.90;;;;;;5135494;28;20071;-75
2022/01/03 16:13:48;;;;;;;18.17;8.07;;;9.70;77.10;;;;;;5135582;28;20512;-75
2022/01/03 16:16:15;;;;;;;27.95;16.00;;;9.60;89.30;;;;;;5135643;28;20080;-75
2022/01/03 16:18:41;;;;;;;29.92;19.75;;;9.60;99.90;;;;;;5135345;28;20114;-75
2022/01/03 16:21:11;;;;;;;27.67;17.42;;;9.40;99.90;;;;;;5135484;28;20074;-74
2022/01/03 16:23:37;;;;;;;17.80;10.30;;;9.30;99.90;;;;;;5135492;28;20031;-75
2022/01/03 16:26:04;;;;;;;19.45;9.45;;;9.30;99.90;;;;;;5135148;27;20478;-75
2022/01/03 16:28:30;;;;;;;24.67;15.05;;;9.30;99.90;;;;;;5135594;28;20073;-75
2022/01/03 16:30:57;;;;;;;30.65;16.55;;;9.10;99.90;;;;;;5135261;27;20043;-75
2022/01/03 16:33:23;;;;;;;38.75;26.27;;;9.00;99.90;;;;;;5138141;27;20055;-75
2022/01/03 16:35:50;;;;;;;67.82;44.30;;;9.00;99.90;;;;;;5139737;27;20039;-75
2022/01/03 16:38:15;;;;;;;163.93;79.70;;;8.90;99.90;;;;;;5139733;27;20118;-74
2022/01/03 16:40:45;;;;;;;109.85;62.03;;;8.70;99.90;;;;;;5138892;27;20169;-74
2022/01/03 16:43:11;;;;;;;70.03;39.28;;;8.70;99.90;;;;;;5138223;27;20194;-74
2022/01/03 16:45:37;;;;;;;40.50;26.52;;;8.50;99.90;;;;;;5139229;27;20477;-75
2022/01/03 16:48:04;;;;;;;47.08;26.35;;;8.50;99.90;;;;;;5138700;27;20031;-75
2022/01/03 16:50:36;;;;;;;33.10;19.80;;;8.60;99.90;;;;;;5125835;27;20065;-75
2022/01/03 16:53:06;;;;;;;31.02;20.80;;;8.50;99.90;;;;;;5108466;27;20636;-73
2022/01/03 16:55:32;;;;;;;35.80;20.97;;;8.50;99.90;;;;;;5117032;27;20035;-73
2022/01/03 16:57:58;;;;;;;43.92;29.70;;;8.40;99.90;;;;;;5138186;27;20133;-73
2022/01/03 17:00:24;;;;;;;36.20;21.70;;;8.40;99.90;;;;;;5138774;27;20031;-73
2022/01/03 17:02:51;;;;;;;53.20;31.65;;;8.30;99.90;;;;;;5138795;27;20068;-73
2022/01/03 17:05:17;;;;;;;33.70;20.10;;;8.20;99.90;;;;;;5138520;27;20549;-73
2022/01/03 17:07:43;;;;;;;30.13;20.58;;;8.10;99.90;;;;;;5138506;27;20039;-73
2022/01/03 17:10:10;;;;;;;27.70;16.98;;;8.00;99.90;;;;;;5138507;27;20131;-75
2022/01/03 17:12:39;;;;;;;92.60;70.20;;;8.00;99.90;;;;;;5138030;27;20496;-74
2022/01/03 17:15:06;;;;;;;35.55;24.70;;;7.90;99.90;;;;;;5138828;27;20063;-76
2022/01/03 17:17:32;;;;;;;29.33;19.10;;;7.80;99.90;;;;;;5138328;27;20508;-73
2022/01/03 17:19:58;;;;;;;30.65;17.00;;;7.80;99.90;;;;;;5138476;27;20031;-73
2022/01/03 17:22:24;;;;;;;57.33;40.45;;;7.80;99.90;;;;;;5138266;27;20059;-73
2022/01/03 17:24:50;;;;;;;137.00;106.28;;;7.70;99.90;;;;;;5138107;27;20116;-73
2022/01/03 17:27:16;;;;;;;47.88;33.28;;;7.70;99.90;;;;;;5138383;27;20031;-73
2022/01/03 17:29:42;;;;;;;61.35;42.72;;;7.60;99.90;;;;;;5138447;27;20043;-73
2022/01/03 17:32:09;;;;;;;50.08;36.67;;;7.60;99.90;;;;;;5138266;27;20039;-73
2022/01/03 17:34:36;;;;;;;45.45;36.38;;;7.60;99.90;;;;;;5137897;27;20088;-73
2022/01/03 17:37:03;;;;;;;45.70;32.70;;;7.60;99.90;;;;;;5138168;27;20035;-73
2022/01/03 17:39:28;;;;;;;69.55;48.88;;;7.50;99.90;;;;;;5138302;27;20122;-73
2022/01/03 17:41:54;;;;;;;40.60;22.30;;;7.50;99.90;;;;;;5137463;27;20177;-74
2022/01/03 17:44:20;;;;;;;37.20;26.75;;;7.40;99.90;;;;;;5137395;27;20031;-73
2022/01/03 17:46:46;;;;;;;184.55;165.80;;;7.30;99.90;;;;;;5137738;27;20110;-74
2022/01/03 17:49:12;;;;;;;59.88;52.83;;;7.40;99.90;;;;;;5137729;27;20073;-74
2022/01/03 17:51:38;;;;;;;43.58;31.35;;;7.30;99.90;;;;;;5137744;27;20043;-74
2022/01/03 17:54:04;;;;;;;39.45;29.00;;;7.30;99.90;;;;;;5138068;27;20035;-74
2022/01/03 17:56:30;;;;;;;46.10;31.15;;;7.20;99.90;;;;;;5126743;27;20031;-74
2022/01/03 17:58:56;;;;;;;76.00;59.80;;;7.20;99.90;;;;;;5129947;27;20121;-73
2022/01/03 18:01:22;;;;;;;91.53;73.47;;;7.30;99.90;;;;;;5128958;27;20050;-73
2022/01/03 18:03:49;;;;;;;32.80;23.58;;;7.30;99.90;;;;;;5128288;27;20035;-74
2022/01/03 18:06:15;;;;;;;34.05;22.75;;;7.20;99.90;;;;;;5133499;27;20027;-73
2022/01/03 18:08:41;;;;;;;33.97;21.38;;;7.10;99.90;;;;;;5128504;27;20039;-79
2022/01/03 18:11:09;;;;;;;41.22;24.73;;;7.00;99.90;;;;;;5127178;27;20070;-74
2022/01/03 18:13:35;;;;;;;50.22;35.47;;;7.00;99.90;;;;;;5118344;27;20042;-74
2022/01/03 18:16:01;;;;;;;46.25;31.25;;;6.90;99.90;;;;;;5121781;27;20039;-79
2022/01/03 18:18:27;;;;;;;67.72;41.90;;;6.90;99.90;;;;;;5118254;27;20023;-74
2022/01/03 18:20:54;;;;;;;39.70;29.23;;;6.90;99.90;;;;;;5117270;28;20089;-75
2022/01/03 18:23:20;;;;;;;43.55;28.58;;;6.70;99.90;;;;;;5136158;27;20065;-75
2022/01/03 18:25:46;;;;;;;40.35;25.30;;;6.70;99.90;;;;;;5137398;27;20556;-75
2022/01/03 18:28:12;;;;;;;43.72;31.95;;;6.60;99.90;;;;;;5137194;27;20045;-75
2022/01/03 18:30:39;;;;;;;54.78;37.60;;;6.60;99.90;;;;;;5137668;27;20129;-75
2022/01/03 18:33:06;;;;;;;64.70;47.03;;;6.60;99.90;;;;;;5135442;27;20489;-75
2022/01/03 18:35:33;;;;;;;62.28;43.22;;;6.60;99.90;;;;;;5132824;27;20107;-75
2022/01/03 18:37:59;;;;;;;47.05;27.45;;;6.50;99.90;;;;;;5125357;27;20035;-75
2022/01/03 18:40:25;;;;;;;46.28;32.20;;;6.60;99.90;;;;;;5123134;27;20035;-75
2022/01/03 18:42:51;;;;;;;105.35;87.15;;;6.60;99.90;;;;;;5117515;27;20494;-75
2022/01/03 18:45:17;;;;;;;53.33;38.80;;;6.50;99.90;;;;;;5116422;28;20031;-75
2022/01/03 18:47:43;;;;;;;67.32;56.25;;;6.50;99.90;;;;;;5129459;27;20042;-76
2022/01/03 18:50:12;;;;;;;51.00;38.03;;;6.50;99.90;;;;;;5116875;27;20352;-75
2022/01/03 18:52:43;;;;;;;53.30;36.83;;;6.60;99.90;;;;;;5123394;27;20027;-75
2022/01/03 18:55:11;;;;;;;78.13;56.35;;;6.60;99.90;;;;;;5125271;27;20046;-76
2022/01/03 18:57:37;;;;;;;37.55;25.45;;;6.50;99.90;;;;;;5120161;27;20042;-76
2022/01/03 19:00:09;;;;;;;29.95;20.50;;;6.40;99.90;;;;;;5128452;27;20115;-74
2022/01/03 19:02:36;;;;;;;115.78;89.68;;;6.40;99.90;;;;;;5122204;27;20087;-73
2022/01/03 19:05:02;;;;;;;42.92;33.17;;;6.40;99.90;;;;;;5135265;27;20039;-74
2022/01/03 19:07:28;;;;;;;75.53;54.67;;;6.30;99.90;;;;;;5123343;27;20485;-74
2022/01/03 19:09:54;;;;;;;46.47;31.65;;;6.20;99.90;;;;;;5122517;27;20063;-75
2022/01/03 19:12:20;;;;;;;55.53;36.88;;;6.20;99.90;;;;;;5136737;27;20085;-75
2022/01/03 19:14:46;;;;;;;49.97;35.60;;;6.20;99.90;;;;;;5136172;27;20042;-75
2022/01/03 19:17:12;;;;;;;33.45;25.63;;;6.10;99.90;;;;;;5120981;27;20524;-74
2022/01/03 19:19:40;;;;;;;33.30;23.60;;;6.20;99.90;;;;;;5119474;27;20035;-75
2022/01/03 19:22:08;;;;;;;35.30;21.92;;;6.10;99.90;;;;;;5124943;27;20030;-75
2022/01/03 19:24:34;;;;;;;66.65;44.10;;;6.10;99.90;;;;;;5126448;27;20338;-74
2022/01/03 19:27:00;;;;;;;58.53;39.83;;;6.00;99.90;;;;;;5126572;27;20036;-76
2022/01/03 19:29:26;;;;;;;71.93;49.65;;;6.00;99.90;;;;;;5125875;27;20106;-76
2022/01/03 19:31:52;;;;;;;39.75;28.48;;;6.00;99.90;;;;;;5122585;27;20051;-75
2022/01/03 19:39:47;;;;;;;33.90;20.67;;;5.90;99.90;;;;;;5126162;27;20026;-74
2022/01/03 19:42:13;;;;;;;34.35;25.33;;;6.00;99.90;;;;;;5115507;28;20032;-74
2022/01/03 19:44:40;;;;;;;72.90;46.58;;;6.00;99.90;;;;;;5129008;27;20039;-75
2022/01/03 19:47:06;;;;;;;64.60;43.60;;;5.90;99.90;;;;;;5125504;27;20027;-74
2022/01/03 19:49:33;;;;;;;35.28;25.60;;;5.90;99.90;;;;;;5119090;27;20520;-75
2022/01/03 19:52:00;;;;;;;28.40;19.70;;;5.80;99.90;;;;;;5127914;27;20488;-75
2022/01/03 19:54:26;;;;;;;34.03;24.65;;;5.80;99.90;;;;;;5126852;27;20038;-75
2022/01/03 19:56:52;;;;;;;33.50;22.52;;;5.80;99.90;;;;;;5116549;28;20153;-75
2022/01/03 19:59:18;;;;;;;34.42;23.85;;;5.80;99.90;;;;;;5116026;27;20032;-75
2022/01/03 20:01:45;;;;;;;133.48;98.20;;;5.70;99.90;;;;;;5131278;27;20031;-76
2022/01/03 20:04:11;;;;;;;79.55;57.17;;;5.70;99.90;;;;;;5123174;28;20027;-75
2022/01/03 20:06:37;;;;;;;54.42;38.35;;;5.80;99.90;;;;;;5132079;27;20038;-75
2022/01/03 20:09:07;;;;;;;64.68;45.88;;;5.80;99.90;;;;;;5123575;27;20038;-75
2022/01/03 20:11:33;;;;;;;42.05;29.70;;;5.70;99.90;;;;;;5127047;27;20047;-75
2022/01/03 20:13:59;;;;;;;37.75;28.88;;;5.70;99.90;;;;;;5122887;28;20388;-75
2022/01/03 20:16:25;;;;;;;49.30;36.47;;;5.70;99.90;;;;;;5135203;28;20039;-76
2022/01/03 20:18:51;;;;;;;62.15;45.20;;;5.70;99.90;;;;;;5126568;28;20087;-75
2022/01/03 20:21:17;;;;;;;50.85;36.20;;;5.70;99.90;;;;;;5135464;28;20117;-75
2022/01/03 20:23:43;;;;;;;48.55;30.70;;;5.70;99.90;;;;;;5128034;28;20035;-76
2022/01/03 20:26:10;;;;;;;35.47;24.70;;;5.70;99.90;;;;;;5122641;27;20034;-75
2022/01/03 20:28:36;;;;;;;34.05;24.02;;;5.80;99.90;;;;;;5122421;28;20390;-75
2022/01/03 20:31:04;;;;;;;34.47;22.90;;;5.80;99.90;;;;;;5114802;28;20043;-75
2022/01/03 20:33:31;;;;;;;44.95;25.40;;;5.80;99.90;;;;;;5125317;28;20088;-76
2022/01/03 20:35:58;;;;;;;26.70;18.60;;;5.70;99.90;;;;;;5114474;28;20036;-75
2022/01/03 20:38:24;;;;;;;30.10;19.17;;;5.60;99.90;;;;;;5126588;28;20402;-76
2022/01/03 20:40:51;;;;;;;34.70;22.02;;;5.60;99.90;;;;;;5135306;28;20081;-76
2022/01/03 20:43:19;;;;;;;162.20;105.80;;;5.50;99.90;;;;;;5119650;27;20063;-76
2022/01/03 20:45:45;;;;;;;46.63;31.30;;;5.40;99.90;;;;;;5113782;28;20474;-75
2022/01/03 20:48:12;;;;;;;38.80;28.55;;;5.40;99.90;;;;;;5131097;28;20432;-76
2022/01/03 20:50:38;;;;;;;37.20;26.48;;;5.40;99.90;;;;;;5133101;28;20035;-75
2022/01/03 20:53:04;;;;;;;41.22;24.20;;;5.40;99.90;;;;;;5133892;27;20027;-75
2022/01/03 20:55:32;;;;;;;33.83;24.80;;;5.40;99.90;;;;;;5134923;28;20039;-75
2022/01/03 20:58:00;;;;;;;35.05;22.20;;;5.30;99.90;;;;;;5134852;27;20482;-75
2022/01/03 21:00:28;;;;;;;44.17;32.30;;;5.30;99.90;;;;;;5135121;28;20039;-75
2022/01/03 21:02:55;;;;;;;34.45;23.98;;;5.30;99.90;;;;;;5134760;27;20080;-75
2022/01/03 21:05:29;;;;;;;38.38;26.77;;;5.30;99.90;;;;;;5134931;27;20088;-75
2022/01/03 21:07:56;;;;;;;34.72;23.30;;;5.30;99.90;;;;;;5135033;28;20432;-76
2022/01/03 21:10:23;;;;;;;33.40;22.85;;;5.20;99.90;;;;;;5134819;27;20501;-76
2022/01/03 21:12:50;;;;;;;36.38;26.75;;;5.20;99.90;;;;;;5135012;28;20035;-75
2022/01/03 21:15:18;;;;;;;37.38;27.58;;;5.10;99.90;;;;;;5134888;28;20038;-76
2022/01/03 21:17:45;;;;;;;36.10;25.98;;;5.00;99.90;;;;;;5134641;27;20482;-75
2022/01/03 21:20:12;;;;;;;28.25;18.40;;;5.00;99.90;;;;;;5120234;27;20063;-76
2022/01/03 21:22:40;;;;;;;43.53;29.58;;;5.10;99.90;;;;;;5117999;28;20070;-76
2022/01/03 21:25:08;;;;;;;45.85;32.97;;;5.20;99.90;;;;;;5117992;28;20027;-75
2022/01/03 21:27:36;;;;;;;31.50;22.38;;;5.20;99.90;;;;;;5117993;28;20043;-75
2022/01/03 21:30:03;;;;;;;27.70;18.38;;;5.10;99.90;;;;;;5118044;28;20069;-75
2022/01/03 21:32:35;;;;;;;32.35;22.55;;;5.00;99.90;;;;;;5125738;27;20039;-75